createdAt,value
2023-03-29T00:01:36.087Z,98320.28
2023-03-29T00:04:05.223Z,98320.13
2023-03-29T00:06:33.428Z,98314.19
2023-03-29T00:09:02.013Z,98310.25
2023-03-29T00:11:29.405Z,98304.16
2023-03-29T00:13:57.023Z,98307.09
2023-03-29T00:16:24.579Z,98306.13
2023-03-29T00:18:52.114Z,98299.56
2023-03-29T00:21:19.555Z,98297.63
2023-03-29T00:23:47.009Z,98294.50
2023-03-29T00:26:14.552Z,98289.13
2023-03-29T00:28:42.133Z,98295.19
2023-03-29T00:31:15.680Z,98296.38
2023-03-29T00:33:43.264Z,98289.31
2023-03-29T00:36:12.635Z,98287.34
2023-03-29T00:38:40.655Z,98292.59
2023-03-29T00:41:09.517Z,98283.56
2023-03-29T00:43:56.667Z,98284.56
2023-03-29T00:46:26.206Z,98277.00
2023-03-29T00:48:58.110Z,98275.34
2023-03-29T00:51:30.760Z,98275.66
2023-03-29T00:54:01.826Z,98275.00
2023-03-29T00:56:40.034Z,98266.94
2023-03-29T00:59:32.986Z,98261.81
2023-03-29T01:02:05.513Z,98261.81
2023-03-29T01:04:36.556Z,98259.19
2023-03-29T01:07:13.653Z,98257.06
2023-03-29T01:09:48.060Z,98257.88
2023-03-29T01:12:20.039Z,98252.63
2023-03-29T01:14:52.462Z,98251.63
2023-03-29T01:17:25.586Z,98245.41
2023-03-29T01:19:59.856Z,98236.88
2023-03-29T01:23:05.836Z,98232.09
2023-03-29T01:25:57.906Z,98232.06
2023-03-29T01:28:40.405Z,98220.25
2023-03-29T01:31:17.362Z,98224.66
2023-03-29T01:33:52.202Z,98214.31
2023-03-29T01:36:45.882Z,98210.69
2023-03-29T01:39:13.496Z,98207.94
2023-03-29T01:41:49.630Z,98207.75
2023-03-29T01:44:30.303Z,98199.56
2023-03-29T01:47:27.777Z,98201.88
2023-03-29T01:50:17.862Z,98192.38
2023-03-29T01:52:56.899Z,98188.59
2023-03-29T01:55:31.712Z,98187.63
2023-03-29T01:58:02.056Z,98184.16
2023-03-29T02:00:30.444Z,98174.66
2023-03-29T02:03:04.637Z,98175.47
2023-03-29T02:05:33.671Z,98165.13
2023-03-29T02:08:02.769Z,98177.28
2023-03-29T02:10:34.280Z,98171.50
2023-03-29T02:13:02.042Z,98167.91
2023-03-29T02:15:29.624Z,98163.47
2023-03-29T02:17:57.196Z,98170.38
2023-03-29T02:20:30.431Z,98163.31
2023-03-29T02:23:09.871Z,98169.41
2023-03-29T02:25:38.090Z,98167.28
2023-03-29T02:28:07.026Z,98162.84
2023-03-29T02:30:50.354Z,98146.78
2023-03-29T02:33:22.298Z,98144.50
2023-03-29T02:35:59.238Z,98144.31
2023-03-29T02:38:27.966Z,98143.00
2023-03-29T02:40:57.992Z,98132.19
2023-03-29T02:43:28.349Z,98138.41
2023-03-29T02:45:56.641Z,98125.63
2023-03-29T02:48:27.219Z,98123.31
2023-03-29T02:50:58.184Z,98115.31
2023-03-29T02:53:50.076Z,98121.53
2023-03-29T02:56:20.270Z,98120.56
2023-03-29T02:58:49.105Z,98120.72
2023-03-29T03:01:18.186Z,98116.94
2023-03-29T03:03:45.976Z,98101.97
2023-03-29T03:06:14.177Z,98102.31
2023-03-29T03:08:42.221Z,98092.47
2023-03-29T03:11:10.486Z,98090.66
2023-03-29T03:13:38.038Z,98095.25
2023-03-29T03:16:06.007Z,98084.91
2023-03-29T03:18:34.071Z,98089.66
2023-03-29T03:21:02.452Z,98081.63
2023-03-29T03:23:30.530Z,98079.66
2023-03-29T03:25:59.239Z,98086.22
2023-03-29T03:28:27.509Z,98073.44
2023-03-29T03:30:56.037Z,98078.84
2023-03-29T03:33:24.262Z,98077.38
2023-03-29T03:36:11.387Z,98074.72
2023-03-29T03:38:39.239Z,98081.81
2023-03-29T03:41:07.503Z,98079.47
2023-03-29T03:43:38.289Z,98082.63
2023-03-29T03:46:08.713Z,98085.72
2023-03-29T03:48:37.462Z,98077.34
2023-03-29T03:51:18.550Z,98082.13
2023-03-29T03:53:46.810Z,98073.44
2023-03-29T03:56:14.368Z,98073.09
2023-03-29T03:59:09.490Z,98073.91
2023-03-29T04:01:46.444Z,98075.53
2023-03-29T04:04:20.179Z,98072.91
2023-03-29T04:07:02.858Z,98072.09
2023-03-29T04:09:36.457Z,98066.69
2023-03-29T04:12:27.195Z,98070.63
2023-03-29T04:14:56.143Z,98069.81
2023-03-29T04:17:26.366Z,98072.13
2023-03-29T04:20:20.118Z,98065.06
2023-03-29T04:22:51.290Z,98070.13
2023-03-29T04:25:22.501Z,98070.13
2023-03-29T04:27:51.022Z,98063.56
2023-03-29T04:30:30.891Z,98061.59
2023-03-29T04:33:11.759Z,98058.63
2023-03-29T04:35:42.721Z,98060.78
2023-03-29T04:38:14.522Z,98062.75
2023-03-29T04:40:44.388Z,98059.13
2023-03-29T04:43:19.343Z,98059.94
2023-03-29T04:45:56.784Z,98053.81
2023-03-29T04:48:56.164Z,98050.38
2023-03-29T04:51:33.455Z,98047.72
2023-03-29T04:54:01.306Z,98045.72
2023-03-29T04:56:29.102Z,98050.84
2023-03-29T04:59:23.172Z,98045.03
2023-03-29T05:01:51.842Z,98052.78
2023-03-29T05:04:19.329Z,98048.00
2023-03-29T05:07:02.348Z,98042.56
2023-03-29T05:09:32.503Z,98033.34
2023-03-29T05:12:02.408Z,98030.50
2023-03-29T05:14:37.226Z,98032.16
2023-03-29T05:17:05.315Z,98028.69
2023-03-29T05:19:34.096Z,98020.34
2023-03-29T05:22:01.823Z,98017.72
2023-03-29T05:24:29.502Z,98016.59
2023-03-29T05:26:59.734Z,98011.69
2023-03-29T05:29:32.855Z,98005.56
2023-03-29T05:32:38.598Z,98006.56
2023-03-29T05:35:09.489Z,98004.41
2023-03-29T05:37:37.808Z,98002.09
2023-03-29T05:40:10.324Z,97999.59
2023-03-29T05:43:07.077Z,97998.16
2023-03-29T05:45:34.686Z,98008.50
2023-03-29T05:48:03.965Z,98006.25
2023-03-29T05:50:32.191Z,98007.84
2023-03-29T05:53:00.619Z,98006.47
2023-03-29T05:55:28.512Z,98008.69
2023-03-29T05:57:56.718Z,98005.63
2023-03-29T06:00:31.961Z,98019.22
2023-03-29T06:03:21.439Z,98012.41
2023-03-29T06:05:58.092Z,98013.50
2023-03-29T06:08:27.769Z,98016.25
2023-03-29T06:11:10.956Z,98014.38
2023-03-29T06:14:02.568Z,98033.31
2023-03-29T06:16:30.953Z,98033.22
2023-03-29T06:18:58.531Z,98035.41
2023-03-29T06:21:28.660Z,98032.41
2023-03-29T06:23:56.703Z,98039.69
2023-03-29T06:26:27.902Z,98039.69
2023-03-29T06:28:56.458Z,98035.59
2023-03-29T06:31:24.510Z,98038.69
2023-03-29T06:33:53.330Z,98037.56
2023-03-29T06:36:53.134Z,98042.91
2023-03-29T06:39:22.154Z,98037.63
2023-03-29T06:42:20.076Z,98029.63
2023-03-29T06:45:17.920Z,98039.47
2023-03-29T06:47:49.078Z,98032.63
2023-03-29T06:50:17.596Z,98029.09
2023-03-29T06:52:52.825Z,98030.31
2023-03-29T06:55:21.887Z,98036.78
2023-03-29T06:57:50.848Z,98034.06
2023-03-29T07:00:28.326Z,98035.94
2023-03-29T07:03:13.376Z,98034.78
2023-03-29T07:05:42.355Z,98028.94
2023-03-29T07:08:16.617Z,98026.72
2023-03-29T07:10:53.458Z,98029.50
2023-03-29T07:13:49.150Z,98015.59
2023-03-29T07:16:20.107Z,98021.03
2023-03-29T07:18:51.374Z,98016.34
2023-03-29T07:21:41.717Z,98017.00
2023-03-29T07:24:10.350Z,98015.59
2023-03-29T07:26:40.482Z,98004.13
2023-03-29T07:29:11.955Z,98013.75
2023-03-29T07:31:41.989Z,98011.84
2023-03-29T07:34:30.233Z,98009.78
2023-03-29T07:36:59.382Z,98003.50
2023-03-29T07:39:27.983Z,98005.78
2023-03-29T07:42:24.210Z,98007.22
2023-03-29T07:44:52.152Z,98003.47
2023-03-29T07:47:19.744Z,98009.81
2023-03-29T07:49:47.217Z,98007.19
2023-03-29T07:52:14.769Z,98011.91
2023-03-29T07:54:42.520Z,98008.25
2023-03-29T07:57:33.301Z,98007.75
2023-03-29T08:00:01.442Z,98004.72
2023-03-29T08:02:45.050Z,98003.81
2023-03-29T08:05:16.273Z,97996.25
2023-03-29T08:07:52.404Z,97997.50
2023-03-29T08:10:39.671Z,98006.72
2023-03-29T08:13:20.526Z,98013.66
2023-03-29T08:16:08.938Z,98018.56
2023-03-29T08:18:42.609Z,98019.91
2023-03-29T08:21:10.255Z,98021.91
2023-03-29T08:23:38.102Z,98022.00
2023-03-29T08:26:26.004Z,98019.88
2023-03-29T08:28:54.804Z,98019.25
2023-03-29T08:31:24.360Z,98016.47
2023-03-29T08:33:53.346Z,98024.59
2023-03-29T08:36:40.479Z,98021.53
2023-03-29T08:39:30.566Z,98023.81
2023-03-29T08:42:39.068Z,98017.00
2023-03-29T08:45:16.616Z,98022.75
2023-03-29T08:47:58.917Z,98024.63
2023-03-29T08:50:40.620Z,98010.38
2023-03-29T08:53:38.767Z,98015.19
2023-03-29T08:56:23.218Z,98018.03
2023-03-29T08:59:35.315Z,98017.31
2023-03-29T09:02:17.983Z,98009.41
2023-03-29T09:04:52.693Z,98014.31
2023-03-29T09:07:33.511Z,98009.03
2023-03-29T09:10:01.892Z,98000.56
2023-03-29T09:13:22.453Z,97998.38
2023-03-29T09:16:07.547Z,97994.09
2023-03-29T09:19:06.586Z,97991.28
2023-03-29T09:21:43.419Z,97993.44
2023-03-29T09:24:15.763Z,97988.50
2023-03-29T09:26:54.830Z,97991.50
2023-03-29T09:29:41.237Z,97986.47
2023-03-29T09:32:33.206Z,97987.72
2023-03-29T09:35:23.370Z,97987.97
2023-03-29T09:37:54.277Z,97993.81
2023-03-29T09:40:28.049Z,97980.88
2023-03-29T09:43:04.755Z,97985.34
2023-03-29T09:45:33.544Z,97985.31
2023-03-29T09:48:21.730Z,97978.63
2023-03-29T09:50:54.871Z,97989.41
2023-03-29T09:53:22.704Z,97980.84
2023-03-29T09:56:02.792Z,97980.88
2023-03-29T09:58:38.955Z,97975.44
2023-03-29T10:01:10.564Z,97978.38
2023-03-29T10:03:40.061Z,97968.75
2023-03-29T10:06:12.641Z,97972.47
2023-03-29T10:08:50.157Z,97975.94
2023-03-29T10:11:28.966Z,97974.44
2023-03-29T10:14:02.220Z,97971.78
2023-03-29T10:16:36.344Z,97976.28
2023-03-29T10:19:42.620Z,97969.34
2023-03-29T10:22:24.501Z,97966.31
2023-03-29T10:24:54.134Z,97971.69
2023-03-29T10:27:28.061Z,97964.84
2023-03-29T10:29:58.656Z,97965.25
2023-03-29T10:32:34.862Z,97962.09
2023-03-29T10:35:22.705Z,97969.94
2023-03-29T10:37:53.194Z,97961.19
2023-03-29T10:40:26.737Z,97959.25
2023-03-29T10:42:59.036Z,97946.19
2023-03-29T10:45:34.127Z,97948.03
2023-03-29T10:48:06.999Z,97943.56
2023-03-29T10:50:38.416Z,97946.84
2023-03-29T10:53:17.738Z,97944.00
2023-03-29T10:56:07.745Z,97940.72
2023-03-29T10:58:59.026Z,97931.53
2023-03-29T11:01:36.323Z,97932.97
2023-03-29T11:04:25.472Z,97946.00
2023-03-29T11:07:24.973Z,97934.81
2023-03-29T11:10:16.862Z,97929.47
2023-03-29T11:12:57.055Z,97932.75
2023-03-29T11:16:03.025Z,97929.69
2023-03-29T11:18:58.299Z,97921.38
2023-03-29T11:21:59.312Z,97914.63
2023-03-29T11:24:58.171Z,97912.38
2023-03-29T11:28:14.040Z,97907.28
2023-03-29T11:31:07.034Z,97896.22
2023-03-29T11:33:50.150Z,97888.22
2023-03-29T11:36:30.616Z,97883.97
2023-03-29T11:39:05.442Z,97875.53
2023-03-29T11:41:38.711Z,97875.19
2023-03-29T11:44:15.033Z,97877.31
2023-03-29T11:46:49.588Z,97877.81
2023-03-29T11:49:35.333Z,97872.19
2023-03-29T11:52:24.527Z,97872.94
2023-03-29T11:55:12.185Z,97867.34
2023-03-29T11:57:51.500Z,97862.03
2023-03-29T12:00:19.791Z,97862.38
2023-03-29T12:03:06.957Z,97859.19
2023-03-29T12:05:45.765Z,97858.06
2023-03-29T12:08:22.462Z,97867.03
2023-03-29T12:11:18.769Z,97857.53
2023-03-29T12:13:52.747Z,97853.53
2023-03-29T12:16:32.498Z,97856.22
2023-03-29T12:19:07.175Z,97853.06
2023-03-29T12:21:36.502Z,97848.72
2023-03-29T12:24:05.109Z,97840.72
2023-03-29T12:26:35.476Z,97835.03
2023-03-29T12:29:05.660Z,97831.03
2023-03-29T12:31:57.567Z,97826.81
2023-03-29T12:34:56.257Z,97823.28
2023-03-29T12:38:30.532Z,97826.97
2023-03-29T12:41:25.025Z,97827.13
2023-03-29T12:44:15.304Z,97817.97
2023-03-29T12:46:55.212Z,97812.84
2023-03-29T12:49:33.051Z,97809.94
2023-03-29T12:52:03.850Z,97811.19
2023-03-29T12:54:32.929Z,97808.44
2023-03-29T12:57:02.872Z,97814.53
2023-03-29T12:59:48.704Z,97819.00
2023-03-29T13:02:17.181Z,97813.47
2023-03-29T13:04:52.495Z,97809.09
2023-03-29T13:07:22.858Z,97803.34
2023-03-29T13:09:59.515Z,97803.75
2023-03-29T13:12:40.543Z,97796.13
2023-03-29T13:15:32.604Z,97806.31
2023-03-29T13:18:18.492Z,97804.91
2023-03-29T13:20:51.471Z,97804.78
2023-03-29T13:23:40.090Z,97799.09
2023-03-29T13:26:23.446Z,97796.81
2023-03-29T13:29:09.704Z,97792.09
2023-03-29T13:31:44.464Z,97787.06
2023-03-29T13:34:30.447Z,97792.16
2023-03-29T13:37:59.617Z,97797.97
2023-03-29T13:40:29.638Z,97802.56
2023-03-29T13:43:08.485Z,97806.44
2023-03-29T13:45:36.759Z,97796.25
2023-03-29T13:48:30.463Z,97798.25
2023-03-29T13:51:19.535Z,97797.06
2023-03-29T13:53:53.313Z,97786.94
2023-03-29T13:56:28.419Z,97792.69
2023-03-29T13:59:15.757Z,97781.22
2023-03-29T14:01:57.475Z,97774.53
2023-03-29T14:04:28.322Z,97767.31
2023-03-29T14:06:57.785Z,97763.31
2023-03-29T14:09:31.841Z,97762.81
2023-03-29T14:12:00.872Z,97761.03
2023-03-29T14:14:32.286Z,97769.13
2023-03-29T14:17:01.344Z,97766.53
2023-03-29T14:19:35.533Z,97769.44
2023-03-29T14:22:08.582Z,97767.25
2023-03-29T14:24:40.162Z,97767.13
2023-03-29T14:27:11.498Z,97762.25
2023-03-29T14:29:38.978Z,97764.91
2023-03-29T14:32:17.951Z,97756.69
2023-03-29T14:34:49.982Z,97761.09
2023-03-29T14:37:30.341Z,97758.00
2023-03-29T14:39:59.240Z,97762.06
2023-03-29T14:42:29.075Z,97752.59
2023-03-29T14:45:04.319Z,97761.91
2023-03-29T14:47:33.996Z,97751.81
2023-03-29T14:50:02.716Z,97753.16
2023-03-29T14:52:32.008Z,97760.34
2023-03-29T14:55:02.111Z,97769.81
2023-03-29T14:57:35.856Z,97766.06
2023-03-29T15:00:27.030Z,97760.66
2023-03-29T15:03:00.680Z,97751.16
2023-03-29T15:05:39.005Z,97760.84
2023-03-29T15:08:10.533Z,97760.84
2023-03-29T15:10:39.070Z,97758.78
2023-03-29T15:13:08.391Z,97759.16
2023-03-29T15:15:38.509Z,97756.78
2023-03-29T15:18:08.192Z,97743.56
2023-03-29T15:20:39.251Z,97743.31
2023-03-29T15:23:15.710Z,97737.19
2023-03-29T15:25:56.474Z,97729.56
2023-03-29T15:28:28.569Z,97741.00
2023-03-29T15:31:07.820Z,97733.84
2023-03-29T15:33:38.278Z,97729.09
2023-03-29T15:36:08.226Z,97723.50
2023-03-29T15:38:43.894Z,97723.41
2023-03-29T15:41:16.228Z,97725.53
2023-03-29T15:43:43.782Z,97720.53
2023-03-29T15:46:14.050Z,97717.78
2023-03-29T15:48:42.596Z,97701.91
2023-03-29T15:51:13.466Z,97698.69
2023-03-29T15:53:42.375Z,97694.19
2023-03-29T15:56:15.966Z,97699.34
2023-03-29T15:58:44.172Z,97697.44
2023-03-29T16:01:34.792Z,97694.63
2023-03-29T16:04:14.166Z,97697.06
2023-03-29T16:06:43.078Z,97696.59
2023-03-29T16:09:12.088Z,97692.22
2023-03-29T16:11:41.732Z,97690.81
2023-03-29T16:14:31.389Z,97694.19
2023-03-29T16:17:01.483Z,97692.22
2023-03-29T16:19:31.247Z,97695.13
2023-03-29T16:22:01.839Z,97687.59
2023-03-29T16:24:33.203Z,97688.25
2023-03-29T16:27:01.887Z,97691.81
2023-03-29T16:29:29.494Z,97691.00
2023-03-29T16:31:57.404Z,97685.69
2023-03-29T16:34:24.984Z,97680.72
2023-03-29T16:36:53.192Z,97690.22
2023-03-29T16:39:20.939Z,97685.09
2023-03-29T16:41:50.313Z,97686.03
2023-03-29T16:44:22.948Z,97685.59
2023-03-29T16:46:54.101Z,97688.47
2023-03-29T16:49:22.504Z,97681.59
2023-03-29T16:51:50.420Z,97678.25
2023-03-29T16:54:18.972Z,97669.69
2023-03-29T16:56:47.073Z,97668.50
2023-03-29T16:59:15.560Z,97668.38
2023-03-29T17:01:43.225Z,97669.06
2023-03-29T17:04:10.815Z,97673.19
2023-03-29T17:06:38.306Z,97663.38
2023-03-29T17:09:06.250Z,97667.88
2023-03-29T17:11:34.223Z,97667.81
2023-03-29T17:14:01.827Z,97668.25
2023-03-29T17:16:29.567Z,97665.34
2023-03-29T17:19:00.707Z,97662.31
2023-03-29T17:21:29.404Z,97662.16
2023-03-29T17:23:57.006Z,97657.66
2023-03-29T17:26:24.428Z,97658.50
2023-03-29T17:28:51.887Z,97663.06
2023-03-29T17:31:19.688Z,97655.97
2023-03-29T17:33:47.669Z,97668.25
2023-03-29T17:36:15.882Z,97661.28
2023-03-29T17:38:43.430Z,97661.81
2023-03-29T17:41:11.243Z,97659.38
2023-03-29T17:43:38.668Z,97668.81
2023-03-29T17:46:06.591Z,97662.63
2023-03-29T17:48:34.631Z,97666.69
2023-03-29T17:51:02.360Z,97658.34
2023-03-29T17:53:30.043Z,97670.50
2023-03-29T17:55:57.588Z,97663.81
2023-03-29T17:58:25.062Z,97660.78
2023-03-29T18:00:52.565Z,97660.41
2023-03-29T18:03:20.092Z,97663.88
2023-03-29T18:05:48.309Z,97665.75
2023-03-29T18:08:16.937Z,97661.84
2023-03-29T18:10:44.448Z,97666.38
2023-03-29T18:13:14.057Z,97665.56
2023-03-29T18:15:42.212Z,97667.34
2023-03-29T18:18:09.702Z,97667.16
2023-03-29T18:20:37.449Z,97673.59
2023-03-29T18:23:04.893Z,97679.16
2023-03-29T18:25:32.468Z,97679.53
2023-03-29T18:27:59.989Z,97683.41
2023-03-29T18:30:27.415Z,97680.59
2023-03-29T18:32:55.187Z,97695.97
2023-03-29T18:35:22.883Z,97686.34
2023-03-29T18:37:51.686Z,97679.47
2023-03-29T18:40:24.705Z,97691.50
2023-03-29T18:42:52.472Z,97684.19
2023-03-29T18:45:21.502Z,97690.53
2023-03-29T18:47:50.646Z,97689.88
2023-03-29T18:50:18.304Z,97691.06
2023-03-29T18:52:45.963Z,97700.22
2023-03-29T18:55:13.525Z,97696.97
2023-03-29T18:57:41.341Z,97700.44
2023-03-29T19:00:14.840Z,97698.81
2023-03-29T19:02:42.651Z,97696.97
2023-03-29T19:05:10.947Z,97700.84
2023-03-29T19:07:38.512Z,97695.09
2023-03-29T19:10:07.428Z,97689.47
2023-03-29T19:12:35.430Z,97699.22
2023-03-29T19:15:03.067Z,97688.41
2023-03-29T19:17:30.969Z,97696.31
2023-03-29T19:19:58.512Z,97700.53
2023-03-29T19:22:26.667Z,97691.31
2023-03-29T19:24:54.136Z,97691.69
2023-03-29T19:27:21.689Z,97693.78
2023-03-29T19:29:49.769Z,97692.75
2023-03-29T19:32:17.246Z,97694.94
2023-03-29T19:34:44.783Z,97686.78
2023-03-29T19:37:12.262Z,97693.63
2023-03-29T19:39:41.201Z,97687.50
2023-03-29T19:42:08.715Z,97685.47
2023-03-29T19:44:38.341Z,97674.81
2023-03-29T19:47:06.201Z,97672.00
2023-03-29T19:49:38.362Z,97665.44
2023-03-29T19:52:06.439Z,97669.34
2023-03-29T19:54:33.876Z,97667.72
2023-03-29T19:57:02.014Z,97662.63
2023-03-29T19:59:31.210Z,97665.63
2023-03-29T20:01:59.483Z,97657.91
2023-03-29T20:04:28.871Z,97651.78
2023-03-29T20:06:57.787Z,97662.63
2023-03-29T20:09:25.257Z,97657.38
2023-03-29T20:11:52.766Z,97654.72
2023-03-29T20:14:20.482Z,97652.94
2023-03-29T20:16:49.928Z,97648.84
2023-03-29T20:19:18.030Z,97650.66
2023-03-29T20:21:45.596Z,97650.66
2023-03-29T20:24:13.135Z,97650.09
2023-03-29T20:26:40.909Z,97644.84
2023-03-29T20:29:08.922Z,97640.03
2023-03-29T20:31:36.436Z,97641.09
2023-03-29T20:34:03.955Z,97638.63
2023-03-29T20:36:31.815Z,97634.72
2023-03-29T20:39:00.404Z,97625.97
2023-03-29T20:41:27.945Z,97622.06
2023-03-29T20:44:00.169Z,97619.53
2023-03-29T20:46:35.366Z,97614.56
2023-03-29T20:49:04.886Z,97615.19
2023-03-29T20:51:32.407Z,97612.31
2023-03-29T20:54:04.942Z,97616.75
2023-03-29T20:56:34.908Z,97602.88
2023-03-29T20:59:04.199Z,97603.31
2023-03-29T21:01:32.705Z,97602.69
2023-03-29T21:04:00.784Z,97592.88
2023-03-29T21:06:28.354Z,97589.56
2023-03-29T21:08:55.873Z,97586.56
2023-03-29T21:11:23.611Z,97583.28
2023-03-29T21:13:52.885Z,97580.19
2023-03-29T21:16:20.942Z,97574.06
2023-03-29T21:18:48.479Z,97577.34
2023-03-29T21:21:15.933Z,97581.59
2023-03-29T21:23:43.390Z,97573.25
2023-03-29T21:26:10.900Z,97576.13
2023-03-29T21:28:38.375Z,97570.44
2023-03-29T21:31:06.952Z,97568.59
2023-03-29T21:33:36.313Z,97564.09
2023-03-29T21:36:04.056Z,97566.19
2023-03-29T21:38:31.842Z,97563.72
2023-03-29T21:41:00.682Z,97558.06
2023-03-29T21:43:28.882Z,97557.69
2023-03-29T21:45:57.803Z,97547.72
2023-03-29T21:48:25.393Z,97537.16
2023-03-29T21:50:52.864Z,97544.69
2023-03-29T21:53:20.626Z,97540.06
2023-03-29T21:55:49.621Z,97547.66
2023-03-29T21:58:17.877Z,97542.78
2023-03-29T22:00:47.262Z,97547.25
2023-03-29T22:03:15.985Z,97542.63
2023-03-29T22:05:44.585Z,97542.69
2023-03-29T22:08:12.008Z,97540.69
2023-03-29T22:10:41.527Z,97536.19
2023-03-29T22:13:09.529Z,97548.88
2023-03-29T22:15:36.982Z,97541.72
2023-03-29T22:18:05.354Z,97537.88
2023-03-29T22:20:34.301Z,97541.56
2023-03-29T22:23:01.801Z,97530.31
2023-03-29T22:25:29.280Z,97532.34
2023-03-29T22:27:56.760Z,97530.34
2023-03-29T22:30:24.279Z,97526.06
2023-03-29T22:32:51.976Z,97526.69
2023-03-29T22:35:19.528Z,97526.31
2023-03-29T22:37:47.037Z,97525.03
2023-03-29T22:40:14.728Z,97528.91
2023-03-29T22:42:42.273Z,97532.56
2023-03-29T22:45:10.463Z,97528.28
2023-03-29T22:47:38.076Z,97524.03
2023-03-29T22:50:07.289Z,97529.91
2023-03-29T22:52:34.934Z,97521.94
2023-03-29T22:55:02.372Z,97526.31
2023-03-29T22:57:29.880Z,97517.50
2023-03-29T22:59:57.433Z,97519.16
2023-03-29T23:02:25.074Z,97514.28
2023-03-29T23:04:52.710Z,97514.72
2023-03-29T23:07:20.162Z,97522.06
2023-03-29T23:13:35.438Z,97521.41
2023-03-29T23:16:03.987Z,97512.84
2023-03-29T23:18:34.900Z,97506.94
2023-03-29T23:21:06.080Z,97505.09
2023-03-29T23:23:34.145Z,97506.13
2023-03-29T23:26:02.574Z,97504.06
2023-03-29T23:28:34.818Z,97500.38
2023-03-29T23:31:05.854Z,97507.09
2023-03-29T23:33:35.750Z,97504.53
2023-03-29T23:36:05.771Z,97502.25
2023-03-29T23:38:35.532Z,97499.53
2023-03-29T23:41:05.794Z,97498.56
2023-03-29T23:43:35.658Z,97493.94
2023-03-29T23:46:09.803Z,97488.34
2023-03-29T23:48:38.437Z,97486.84
2023-03-29T23:51:08.106Z,97492.31
2023-03-29T23:53:35.766Z,97485.53
2023-03-29T23:56:05.634Z,97482.19
2023-03-29T23:58:35.610Z,97483.13
